createdAt,value
2019-02-12T00:02:10.920Z,98421.64
2019-02-12T00:04:39.179Z,98427.14
2019-02-12T00:07:07.550Z,98431.73
2019-02-12T00:09:35.804Z,98425.34
2019-02-12T00:12:04.216Z,98434.02
2019-02-12T00:14:32.490Z,98442.67
2019-02-12T00:17:00.814Z,98446.20
2019-02-12T00:19:29.079Z,98460.38
2019-02-12T00:21:57.353Z,98470.28
2019-02-12T00:24:25.616Z,98475.06
2019-02-12T00:26:53.953Z,98479.11
2019-02-12T00:29:22.240Z,97575.66
2019-02-12T00:31:50.586Z,98484.78
2019-02-12T00:34:18.863Z,98489.91
2019-02-12T00:36:47.151Z,98494.69
2019-02-12T00:39:15.470Z,98497.32
2019-02-12T00:41:43.757Z,98495.19
2019-02-12T00:44:12.027Z,98503.67
2019-02-12T00:46:40.307Z,98502.59
2019-02-12T00:49:08.701Z,98508.08
2019-02-12T00:51:36.976Z,98509.14
2019-02-12T00:54:05.273Z,98513.19
2019-02-12T00:56:33.536Z,98514.25
2019-02-12T00:59:01.851Z,98504.34
2019-02-12T01:01:30.104Z,98506.47
2019-02-12T01:03:58.347Z,98515.88
2019-02-12T01:06:26.705Z,98527.02
2019-02-12T01:08:54.963Z,98527.39
2019-02-12T01:11:23.249Z,98527.23
2019-02-12T01:13:51.512Z,98527.94
2019-02-12T01:16:19.769Z,98535.55
2019-02-12T01:18:48.064Z,98530.78
2019-02-12T01:21:16.342Z,98538.41
2019-02-12T01:23:44.572Z,98537.53
2019-02-12T01:26:12.829Z,98543.91
2019-02-12T01:28:41.085Z,98548.34
2019-02-12T01:31:09.372Z,98556.85
2019-02-12T01:33:37.695Z,98564.47
2019-02-12T01:36:05.976Z,98560.75
2019-02-12T01:38:34.239Z,98565.88
2019-02-12T01:41:02.512Z,98573.34
2019-02-12T01:43:30.861Z,98581.67
2019-02-12T01:45:59.139Z,98587.69
2019-02-12T01:48:27.394Z,98580.09
2019-02-12T01:50:55.680Z,98578.14
2019-02-12T01:53:24.023Z,98577.45
2019-02-12T01:55:52.321Z,98572.33
2019-02-12T01:58:20.579Z,98574.66
2019-02-12T02:00:48.835Z,98574.45
2019-02-12T02:03:17.096Z,98579.59
2019-02-12T02:05:45.379Z,98586.70
2019-02-12T02:08:13.684Z,98592.55
2019-02-12T02:10:43.565Z,98598.56
2019-02-12T02:13:11.828Z,98582.10
2019-02-12T02:15:40.088Z,98589.72
2019-02-12T02:18:08.415Z,98595.05
2019-02-12T02:20:36.669Z,98601.09
2019-02-12T02:23:04.942Z,98613.11
2019-02-12T02:25:33.235Z,98609.23
2019-02-12T02:28:01.493Z,98594.70
2019-02-12T02:30:29.800Z,98593.81
2019-02-12T02:32:58.083Z,98590.28
2019-02-12T02:35:26.330Z,98583.20
2019-02-12T02:37:54.627Z,98578.09
2019-02-12T02:40:22.876Z,98585.55
2019-02-12T02:42:51.146Z,98581.83
2019-02-12T02:45:19.412Z,98588.57
2019-02-12T02:47:47.674Z,98581.66
2019-02-12T02:50:15.946Z,98587.67
2019-02-12T02:52:44.211Z,98587.15
2019-02-12T02:55:12.489Z,98590.67
2019-02-12T02:57:40.795Z,98596.53
2019-02-12T03:00:10.944Z,98592.09
2019-02-12T03:02:39.248Z,98581.83
2019-02-12T03:05:10.129Z,98587.13
2019-02-12T03:07:38.489Z,98586.61
2019-02-12T03:10:08.507Z,98590.34
2019-02-12T03:12:36.836Z,98588.03
2019-02-12T03:15:07.135Z,98584.31
2019-02-12T03:17:35.411Z,98592.66
2019-02-12T03:20:04.431Z,98595.81
2019-02-12T03:22:32.773Z,98606.11
2019-02-12T03:25:01.132Z,98607.70
2019-02-12T03:27:29.413Z,98616.03
2019-02-12T03:29:57.822Z,98612.83
2019-02-12T03:32:26.125Z,98607.14
2019-02-12T03:34:54.408Z,98555.47
2019-02-12T03:37:22.694Z,98623.26
2019-02-12T03:39:50.969Z,98614.20
2019-02-12T03:42:19.237Z,98618.98
2019-02-12T03:44:47.609Z,98631.22
2019-02-12T03:47:15.860Z,98643.47
2019-02-12T03:49:44.128Z,98651.59
2019-02-12T03:52:13.299Z,98662.56
2019-02-12T03:54:41.647Z,98653.88
2019-02-12T03:57:09.939Z,98652.14
2019-02-12T03:59:39.847Z,98651.43
2019-02-12T04:02:08.119Z,98656.23
2019-02-12T04:04:36.408Z,98648.95
2019-02-12T04:07:04.666Z,98654.44
2019-02-12T04:09:32.963Z,98680.48
2019-02-12T04:12:01.212Z,98677.44
2019-02-12T04:14:29.543Z,98683.64
2019-02-12T04:16:57.837Z,98691.98
2019-02-12T04:19:26.102Z,98685.76
2019-02-12T04:21:54.468Z,98692.14
2019-02-12T04:24:22.731Z,98688.08
2019-02-12T04:26:51.194Z,98689.66
2019-02-12T04:29:20.238Z,98705.97
2019-02-12T04:31:48.498Z,98703.83
2019-02-12T04:34:16.784Z,98694.25
2019-02-12T04:36:45.058Z,98686.44
2019-02-12T04:39:13.318Z,98682.05
2019-02-12T04:41:41.612Z,98689.83
2019-02-12T04:44:09.933Z,98687.00
2019-02-12T04:46:38.173Z,98684.70
2019-02-12T04:49:06.503Z,98688.06
2019-02-12T04:51:34.831Z,98693.88
2019-02-12T04:54:03.090Z,98702.94
2019-02-12T04:56:31.362Z,98708.61
2019-02-12T04:58:59.672Z,98711.23
2019-02-12T05:01:27.968Z,98710.19
2019-02-12T05:03:56.244Z,98708.61
2019-02-12T05:06:24.480Z,98714.47
2019-02-12T05:09:11.325Z,98724.39
2019-02-12T05:11:40.940Z,98722.62
2019-02-12T05:14:09.224Z,98717.47
2019-02-12T05:16:40.141Z,98712.48
2019-02-12T05:19:08.423Z,98713.37
2019-02-12T05:21:36.695Z,98714.44
2019-02-12T05:24:04.987Z,98495.16
2019-02-12T05:26:33.234Z,98719.39
2019-02-12T05:29:01.523Z,98719.39
2019-02-12T05:31:29.796Z,98717.07
2019-02-12T05:33:58.083Z,98714.97
2019-02-12T05:36:26.352Z,98713.73
2019-02-12T05:38:54.621Z,98714.97
2019-02-12T05:41:22.901Z,98722.41
2019-02-12T05:43:51.176Z,98728.05
2019-02-12T05:46:19.452Z,98730.55
2019-02-12T05:48:47.745Z,98729.66
2019-02-12T05:51:16.055Z,98729.47
2019-02-12T05:53:44.343Z,98735.14
2019-02-12T05:56:12.617Z,98739.58
2019-02-12T05:58:41.075Z,98741.87
2019-02-12T06:01:09.323Z,98741.87
2019-02-12T06:03:37.601Z,98739.73
2019-02-12T06:06:05.879Z,98513.27
2019-02-12T06:08:34.134Z,98746.27
2019-02-12T06:11:02.427Z,98754.42
2019-02-12T06:13:30.723Z,98755.66
2019-02-12T06:15:58.938Z,98755.81
2019-02-12T06:18:27.208Z,98756.71
2019-02-12T06:20:55.492Z,98760.58
2019-02-12T06:23:23.748Z,98747.47
2019-02-12T06:25:52.023Z,98754.38
2019-02-12T06:28:20.297Z,98755.47
2019-02-12T06:30:48.598Z,98760.95
2019-02-12T06:33:16.856Z,98763.97
2019-02-12T06:35:45.152Z,98768.58
2019-02-12T06:38:13.426Z,98768.39
2019-02-12T06:40:41.748Z,98771.25
2019-02-12T06:43:10.065Z,98774.41
2019-02-12T06:45:38.364Z,98771.41
2019-02-12T06:48:06.636Z,98774.59
2019-02-12T06:50:34.875Z,98778.16
2019-02-12T06:53:12.049Z,98780.64
2019-02-12T06:55:33.157Z,98787.55
2019-02-12T06:58:01.440Z,98787.73
2019-02-12T07:00:29.782Z,98788.98
2019-02-12T07:03:08.799Z,98783.30
2019-02-12T07:05:38.789Z,98781.54
2019-02-12T07:08:25.620Z,98791.83
2019-02-12T07:11:15.244Z,98798.41
2019-02-12T07:14:04.683Z,98800.85
2019-02-12T07:17:00.585Z,98811.11
2019-02-12T07:19:37.718Z,98812.91
2019-02-12T07:22:21.309Z,98819.67
2019-02-12T07:25:07.846Z,98822.16
2019-02-12T07:27:47.608Z,98832.64
2019-02-12T07:30:22.405Z,98824.30
2019-02-12T07:33:15.010Z,98826.77
2019-02-12T07:35:48.982Z,98824.63
2019-02-12T07:38:35.621Z,98832.08
2019-02-12T07:41:26.554Z,98831.02
2019-02-12T07:44:00.669Z,98842.89
2019-02-12T07:46:43.956Z,98847.14
2019-02-12T07:49:22.954Z,98845.72
2019-02-12T07:52:00.760Z,98858.30
2019-02-12T07:54:41.331Z,98855.82
2019-02-12T07:57:27.777Z,98862.88
2019-02-12T08:00:11.141Z,98869.27
2019-02-12T08:03:02.273Z,98879.23
2019-02-12T08:05:50.231Z,98882.13
2019-02-12T08:08:21.904Z,98887.80
2019-02-12T08:11:08.287Z,98899.12
2019-02-12T08:13:59.491Z,98895.59
2019-02-12T08:16:42.382Z,98898.44
2019-02-12T08:19:33.225Z,98893.67
2019-02-12T08:22:22.762Z,98897.77
2019-02-12T08:24:56.989Z,98909.30
2019-02-12T08:27:43.759Z,98900.77
2019-02-12T08:30:39.304Z,98908.97
2019-02-12T08:33:25.938Z,98909.16
2019-02-12T08:36:02.998Z,98917.66
2019-02-12T08:38:34.533Z,98911.45
2019-02-12T08:41:41.103Z,98920.47
2019-02-12T08:44:12.609Z,98927.91
2019-02-12T08:47:08.623Z,98932.35
2019-02-12T08:49:56.821Z,98939.30
2019-02-12T08:52:47.597Z,98940.73
2019-02-12T08:55:36.990Z,98945.22
2019-02-12T08:58:25.957Z,98940.81
2019-02-12T09:01:15.747Z,98949.02
2019-02-12T09:04:03.644Z,98942.28
2019-02-12T09:06:53.178Z,98943.00
2019-02-12T09:09:43.895Z,98945.18
2019-02-12T09:12:36.245Z,98948.75
2019-02-12T09:15:13.777Z,98945.59
2019-02-12T09:17:53.840Z,98945.81
2019-02-12T09:20:28.125Z,98947.30
2019-02-12T09:23:05.493Z,98948.05
2019-02-12T09:25:45.952Z,98955.02
2019-02-12T09:28:26.198Z,98946.22
2019-02-12T09:31:06.465Z,98948.02
2019-02-12T09:33:43.767Z,98957.31
2019-02-12T09:36:50.476Z,98967.82
2019-02-12T09:39:33.864Z,98961.66
2019-02-12T09:42:05.389Z,98967.88
2019-02-12T09:44:51.854Z,98960.97
2019-02-12T09:47:41.507Z,98959.55
2019-02-12T09:50:35.504Z,98957.98
2019-02-12T09:53:26.225Z,98955.34
2019-02-12T09:56:14.343Z,98953.75
2019-02-12T09:58:51.526Z,98956.61
2019-02-12T10:01:44.163Z,98968.50
2019-02-12T10:04:21.759Z,98961.23
2019-02-12T10:07:14.195Z,98962.48
2019-02-12T10:09:57.471Z,98963.72
2019-02-12T10:12:37.824Z,98968.16
2019-02-12T10:15:24.193Z,98965.34
2019-02-12T10:18:10.431Z,98976.89
2019-02-12T10:20:57.352Z,98973.52
2019-02-12T10:23:49.817Z,98973.86
2019-02-12T10:26:24.213Z,98969.78
2019-02-12T10:29:18.350Z,98974.59
2019-02-12T10:31:45.694Z,98969.95
2019-02-12T10:34:13.979Z,98971.34
2019-02-12T10:36:42.214Z,98980.42
2019-02-12T10:39:10.809Z,98980.42
2019-02-12T10:41:39.057Z,98984.86
2019-02-12T10:44:07.361Z,98983.45
2019-02-12T10:46:35.610Z,98990.73
2019-02-12T10:49:03.872Z,98990.17
2019-02-12T10:51:32.128Z,98991.94
2019-02-12T10:54:00.379Z,98996.77
2019-02-12T10:56:28.658Z,98993.59
2019-02-12T10:58:56.920Z,98994.14
2019-02-12T11:01:25.194Z,98999.66
2019-02-12T11:03:53.449Z,98995.39
2019-02-12T11:06:21.787Z,98995.55
2019-02-12T11:08:50.043Z,99014.97
2019-02-12T11:11:18.299Z,98998.42
2019-02-12T11:13:46.580Z,99001.27
2019-02-12T11:16:14.835Z,98998.59
2019-02-12T11:18:43.094Z,98994.14
2019-02-12T11:21:12.183Z,98995.92
2019-02-12T11:23:40.688Z,98996.45
2019-02-12T11:26:08.985Z,98990.00
2019-02-12T11:28:37.285Z,98994.75
2019-02-12T11:31:05.555Z,98985.98
2019-02-12T11:33:33.898Z,98985.77
2019-02-12T11:36:02.234Z,98976.83
2019-02-12T11:38:30.637Z,98980.17
2019-02-12T11:40:59.044Z,98975.36
2019-02-12T11:43:27.348Z,98942.98
2019-02-12T11:45:55.623Z,98978.69
2019-02-12T11:48:25.557Z,98990.60
2019-02-12T11:50:53.844Z,98983.46
2019-02-12T11:53:22.099Z,98984.25
2019-02-12T11:55:50.370Z,98991.14
2019-02-12T11:58:18.639Z,98992.05
2019-02-12T12:00:48.674Z,98993.68
2019-02-12T12:03:17.074Z,98991.36
2019-02-12T12:05:45.416Z,98997.63
2019-02-12T12:08:13.708Z,98995.13
2019-02-12T12:10:42.038Z,99000.88
2019-02-12T12:13:10.401Z,99004.25
2019-02-12T12:15:38.665Z,99003.91
2019-02-12T12:18:06.963Z,99006.05
2019-02-12T12:20:35.270Z,99004.28
2019-02-12T12:23:03.622Z,99011.05
2019-02-12T12:25:31.966Z,99008.73
2019-02-12T12:28:00.222Z,99007.14
2019-02-12T12:30:28.556Z,99006.25
2019-02-12T12:32:57.337Z,99004.66
2019-02-12T12:35:25.566Z,99005.34
2019-02-12T12:37:53.873Z,99021.91
2019-02-12T12:40:22.157Z,99021.55
2019-02-12T12:42:50.404Z,99021.89
2019-02-12T12:45:18.695Z,99017.62
2019-02-12T12:47:46.963Z,99024.39
2019-02-12T12:50:15.293Z,99028.84
2019-02-12T12:52:43.580Z,99032.58
2019-02-12T12:55:11.880Z,99033.45
2019-02-12T12:57:41.976Z,98454.11
2019-02-12T13:00:12.712Z,99030.63
2019-02-12T13:02:41.020Z,99034.34
2019-02-12T13:05:10.974Z,99029.38
2019-02-12T13:07:39.586Z,99026.33
2019-02-12T13:10:10.881Z,99019.21
2019-02-12T13:12:39.174Z,99028.45
2019-02-12T13:15:10.042Z,99040.40
2019-02-12T13:17:38.389Z,99032.02
2019-02-12T13:20:12.126Z,99038.42
2019-02-12T13:22:40.385Z,99029.36
2019-02-12T13:25:09.887Z,99033.24
2019-02-12T13:27:38.158Z,99051.94
2019-02-12T13:30:14.826Z,99033.25
2019-02-12T13:32:43.121Z,99031.45
2019-02-12T13:35:11.555Z,99034.13
2019-02-12T13:37:39.826Z,99040.16
2019-02-12T13:40:12.036Z,99042.64
2019-02-12T13:42:40.299Z,99038.56
2019-02-12T13:45:11.380Z,99045.69
2019-02-12T13:47:39.643Z,99037.66
2019-02-12T13:50:09.277Z,99041.05
2019-02-12T13:52:37.610Z,99043.72
2019-02-12T13:55:07.915Z,99045.49
2019-02-12T13:57:36.177Z,99050.68
2019-02-12T14:00:10.746Z,99052.62
2019-02-12T14:02:39.104Z,99057.06
2019-02-12T14:05:10.652Z,99062.42
2019-02-12T14:07:38.902Z,99060.30
2019-02-12T14:10:08.531Z,99059.97
2019-02-12T14:12:36.856Z,99063.16
2019-02-12T14:15:10.935Z,99068.69
2019-02-12T14:17:39.293Z,99067.09
2019-02-12T14:20:12.927Z,99075.11
2019-02-12T14:22:41.220Z,99071.91
2019-02-12T14:25:15.799Z,99073.50
2019-02-12T14:27:44.048Z,99072.44
2019-02-12T14:30:20.052Z,99073.16
2019-02-12T14:32:48.328Z,99076.70
2019-02-12T14:35:16.587Z,99078.66
2019-02-12T14:37:44.852Z,99086.13
2019-02-12T14:40:14.277Z,99086.12
2019-02-12T14:42:42.596Z,99097.88
2019-02-12T14:45:18.597Z,99089.16
2019-02-12T14:47:46.854Z,99096.61
2019-02-12T14:50:17.311Z,99094.66
2019-02-12T14:52:45.589Z,99094.28
2019-02-12T14:55:13.872Z,99088.59
2019-02-12T14:57:42.250Z,99087.00
2019-02-12T15:00:13.191Z,99088.23
2019-02-12T15:02:41.545Z,99083.44
2019-02-12T15:05:09.816Z,99089.14
2019-02-12T15:07:38.083Z,99086.81
2019-02-12T15:10:09.532Z,99076.13
2019-02-12T15:12:37.786Z,99086.63
2019-02-12T15:15:10.759Z,99080.60
2019-02-12T15:17:39.039Z,99078.84
2019-02-12T15:20:09.418Z,99084.32
2019-02-12T15:22:37.691Z,99080.42
2019-02-12T15:25:07.791Z,99084.69
2019-02-12T15:27:36.046Z,99082.90
2019-02-12T15:30:06.995Z,99086.97
2019-02-12T15:32:35.462Z,99086.09
2019-02-12T15:35:04.102Z,99091.94
2019-02-12T15:37:32.616Z,99089.80
2019-02-12T15:40:00.970Z,99088.91
2019-02-12T15:42:29.293Z,99084.98
2019-02-12T15:44:57.619Z,99085.34
2019-02-12T15:47:25.876Z,99085.33
2019-02-12T15:49:54.126Z,99083.73
2019-02-12T15:52:23.524Z,99089.05
2019-02-12T15:54:51.776Z,99084.20
2019-02-12T15:57:20.063Z,99087.59
2019-02-12T15:59:48.326Z,99087.22
2019-02-12T16:02:16.651Z,99094.34
2019-02-12T16:04:46.297Z,99090.05
2019-02-12T16:07:15.032Z,99088.81
2019-02-12T16:09:43.314Z,99086.51
2019-02-12T16:12:11.579Z,99093.10
2019-02-12T16:14:41.741Z,99094.33
2019-02-12T16:17:09.827Z,99100.52
2019-02-12T16:19:38.122Z,99111.91
2019-02-12T16:22:06.395Z,99117.06
2019-02-12T16:24:34.678Z,99115.63
2019-02-12T16:27:03.009Z,99117.75
2019-02-12T16:29:31.362Z,98972.41
2019-02-12T16:31:59.683Z,99128.21
2019-02-12T16:34:28.015Z,99130.67
2019-02-12T16:36:56.366Z,99134.22
2019-02-12T16:39:24.660Z,99137.20
2019-02-12T16:41:52.927Z,98899.61
2019-02-12T16:44:21.352Z,99142.86
2019-02-12T16:46:49.637Z,99150.33
2019-02-12T16:49:17.985Z,99154.95
2019-02-12T16:51:46.245Z,99164.34
2019-02-12T16:54:14.506Z,99164.53
2019-02-12T16:56:42.766Z,99163.97
2019-02-12T16:59:11.023Z,99168.27
2019-02-12T17:01:39.311Z,99027.94
2019-02-12T17:04:07.559Z,99172.86
2019-02-12T17:06:35.815Z,99180.66
2019-02-12T17:09:04.551Z,99182.77
2019-02-12T17:11:32.798Z,99190.57
2019-02-12T17:14:01.061Z,99193.96
2019-02-12T17:16:29.310Z,99200.33
2019-02-12T17:18:57.592Z,99202.44
2019-02-12T17:21:25.851Z,99201.57
2019-02-12T17:23:54.102Z,99212.95
2019-02-12T17:26:22.365Z,99211.66
2019-02-12T17:28:50.622Z,99206.69
2019-02-12T17:31:18.881Z,99210.23
2019-02-12T17:33:47.161Z,99216.45
2019-02-12T17:36:15.436Z,99211.59
2019-02-12T17:38:43.692Z,99218.48
2019-02-12T17:41:11.949Z,99220.02
2019-02-12T17:43:40.197Z,99215.76
2019-02-12T17:46:08.461Z,99226.22
2019-02-12T17:48:36.727Z,99231.68
2019-02-12T17:51:04.972Z,99229.72
2019-02-12T17:53:33.235Z,99237.17
2019-02-12T17:56:01.485Z,99229.67
2019-02-12T17:58:29.911Z,99235.88
2019-02-12T18:00:58.175Z,99234.83
2019-02-12T18:03:26.474Z,99232.48
2019-02-12T18:05:54.722Z,99234.78
2019-02-12T18:08:22.989Z,99235.30
2019-02-12T18:10:51.241Z,99245.23
2019-02-12T18:13:19.500Z,99243.23
2019-02-12T18:15:47.782Z,99238.08
2019-02-12T18:18:16.028Z,99246.09
2019-02-12T18:20:44.303Z,99254.27
2019-02-12T18:23:12.561Z,99262.83
2019-02-12T18:25:40.823Z,99266.94
2019-02-12T18:28:09.097Z,99273.48
2019-02-12T18:30:37.348Z,99274.02
2019-02-12T18:33:05.635Z,99274.41
2019-02-12T18:35:33.883Z,99272.62
2019-02-12T18:38:02.131Z,99280.94
2019-02-12T18:40:30.417Z,99280.94
2019-02-12T18:42:58.676Z,99277.94
2019-02-12T18:45:26.959Z,99276.55
2019-02-12T18:47:55.224Z,99272.48
2019-02-12T18:50:23.488Z,99272.62
2019-02-12T18:52:51.781Z,99273.34
2019-02-12T18:55:20.027Z,99276.20
2019-02-12T18:57:48.294Z,99274.78
2019-02-12T19:00:23.473Z,99279.94
2019-02-12T19:02:51.714Z,99281.00
2019-02-12T19:05:19.996Z,99283.28
2019-02-12T19:07:48.295Z,99285.67
2019-02-12T19:10:17.641Z,99286.91
2019-02-12T19:12:46.009Z,99284.56
2019-02-12T19:15:19.576Z,99285.35
2019-02-12T19:17:56.714Z,99289.93
2019-02-12T19:20:27.820Z,99295.82
2019-02-12T19:22:56.086Z,99295.82
2019-02-12T19:25:24.359Z,99300.45
2019-02-12T19:27:54.261Z,99305.37
2019-02-12T19:30:22.646Z,99308.31
2019-02-12T19:32:50.932Z,99308.91
2019-02-12T19:35:19.252Z,99315.05
2019-02-12T19:37:47.502Z,99314.15
2019-02-12T19:40:15.785Z,99306.48
2019-02-12T19:42:44.081Z,99317.28
2019-02-12T19:45:14.769Z,99311.59
2019-02-12T19:47:43.155Z,99313.73
2019-02-12T19:50:13.075Z,99326.62
2019-02-12T19:52:41.367Z,99331.78
2019-02-12T19:55:10.296Z,99329.87
2019-02-12T19:57:38.642Z,99326.15
2019-02-12T20:00:16.918Z,99335.88
2019-02-12T20:02:45.325Z,99330.86
2019-02-12T20:05:13.742Z,99335.69
2019-02-12T20:07:42.126Z,99332.81
2019-02-12T20:10:11.937Z,99330.08
2019-02-12T20:12:40.226Z,99341.10
2019-02-12T20:15:21.702Z,99335.23
2019-02-12T20:17:50.046Z,99337.86
2019-02-12T20:20:18.388Z,99328.23
2019-02-12T20:22:46.823Z,99326.07
2019-02-12T20:25:15.107Z,99330.07
2019-02-12T20:27:43.362Z,99328.80
2019-02-12T20:30:16.448Z,99333.38
2019-02-12T20:32:44.823Z,99328.74
2019-02-12T20:35:21.151Z,99326.12
2019-02-12T20:37:49.937Z,99322.73
2019-02-12T20:40:18.359Z,99335.34
2019-02-12T20:42:46.637Z,99339.66
2019-02-12T20:45:19.044Z,99340.96
2019-02-12T20:47:47.459Z,99336.00
2019-02-12T20:50:17.894Z,99339.55
2019-02-12T20:52:46.207Z,99344.71
2019-02-12T20:55:14.529Z,99343.33
2019-02-12T20:57:42.822Z,99340.31
2019-02-12T21:00:17.175Z,99346.01
2019-02-12T21:02:47.203Z,99338.95
2019-02-12T21:05:16.567Z,99333.46
2019-02-12T21:07:45.053Z,99340.91
2019-02-12T21:10:16.287Z,99339.30
2019-02-12T21:12:46.081Z,99332.36
2019-02-12T21:15:23.099Z,99335.03
2019-02-12T21:17:51.528Z,99333.06
2019-02-12T21:20:19.813Z,99341.58
2019-02-12T21:22:48.184Z,99335.55
2019-02-12T21:25:16.678Z,99338.37
2019-02-12T21:27:47.836Z,99338.56
2019-02-12T21:30:24.725Z,99327.34
2019-02-12T21:32:53.079Z,99333.06
2019-02-12T21:35:21.363Z,99330.92
2019-02-12T21:37:49.704Z,99329.67
2019-02-12T21:40:24.084Z,99337.13
2019-02-12T21:42:52.640Z,99335.75
2019-02-12T21:45:21.022Z,99329.53
2019-02-12T21:47:49.307Z,99325.95
2019-02-12T21:50:17.722Z,99328.58
2019-02-12T21:52:46.084Z,99324.91
2019-02-12T21:55:21.404Z,99334.13
2019-02-12T21:57:51.391Z,99330.38
2019-02-12T22:00:20.938Z,99334.64
2019-02-12T22:02:49.346Z,99332.89
2019-02-12T22:05:18.095Z,99334.30
2019-02-12T22:07:46.438Z,99332.50
2019-02-12T22:10:29.024Z,99333.00
2019-02-12T22:12:57.381Z,99337.06
2019-02-12T22:15:28.567Z,99332.27
2019-02-12T22:17:56.805Z,99332.61
2019-02-12T22:20:25.099Z,99326.74
2019-02-12T22:22:53.448Z,99329.09
2019-02-12T22:25:21.786Z,99335.09
2019-02-12T22:27:50.165Z,99334.19
2019-02-12T22:30:23.139Z,99332.41
2019-02-12T22:32:53.174Z,99335.29
2019-02-12T22:35:21.494Z,99336.67
2019-02-12T22:37:49.806Z,99331.48
2019-02-12T22:40:18.675Z,99336.92
2019-02-12T22:42:47.109Z,99331.22
2019-02-12T22:45:18.723Z,99328.34
2019-02-12T22:47:46.972Z,99324.09
2019-02-12T22:50:15.416Z,99319.27
2019-02-12T22:52:43.752Z,99320.70
2019-02-12T22:55:12.087Z,99316.78
2019-02-12T22:57:48.565Z,99325.67
2019-02-12T23:00:45.079Z,99322.84
2019-02-12T23:03:13.426Z,99324.56
2019-02-12T23:05:41.694Z,99323.37
2019-02-12T23:08:10.094Z,99327.11
2019-02-12T23:10:38.355Z,99323.24
2019-02-12T23:13:06.637Z,99335.85
2019-02-12T23:15:34.982Z,99329.84
2019-02-12T23:18:03.229Z,99322.94
2019-02-12T23:20:31.590Z,99332.52
2019-02-12T23:22:59.880Z,99336.08
2019-02-12T23:25:28.157Z,99337.12
2019-02-12T23:27:57.707Z,99335.20
2019-02-12T23:30:26.338Z,99329.34
2019-02-12T23:32:54.615Z,99329.20
2019-02-12T23:35:23.001Z,99331.88
2019-02-12T23:37:51.311Z,99333.98
2019-02-12T23:40:19.666Z,99337.37
2019-02-12T23:42:47.936Z,99338.95
2019-02-12T23:45:16.240Z,99341.16
2019-02-12T23:47:44.509Z,99336.67
2019-02-12T23:50:12.768Z,99338.48
2019-02-12T23:52:41.146Z,99337.23
2019-02-12T23:55:09.396Z,99332.08
2019-02-12T23:57:37.653Z,99322.15
